Time;durP1;ratioP1;P1;durP2;ratioP2;P2;SDS_P1;SDS_P2;PMS_P1;PMS_P2;Temp;Humidity;BMP_temperature;BMP_pressure;BME280_temperature;BME280_humidity;BME280_pressure;Samples;Min_cycle;Max_cycle;Signal;HPM_P1;HPM_P2
2021/12/08 00:01:32;;;;;;;1.60;1.50;;;3.50;80.80;3.40;95096.00;;;;5013251;28;20436;-85
2021/12/08 00:04:00;;;;;;;1.50;1.40;;;3.50;80.80;3.40;95091.00;;;;5012136;28;20484;-86
2021/12/08 00:06:30;;;;;;;1.60;1.50;;;3.50;80.90;3.40;95092.00;;;;5014539;28;20481;-86
2021/12/08 00:09:05;;;;;;;1.70;1.60;;;3.60;80.90;3.40;95088.00;;;;5019176;28;20968;-85
2021/12/08 00:14:21;;;;;;;1.80;1.70;;;3.70;81.20;3.50;95087.00;;;;4993617;28;20690;-85
2021/12/08 00:16:48;;;;;;;1.73;1.50;;;3.70;81.40;3.50;95098.00;;;;5004972;28;20549;-85
2021/12/08 00:19:15;;;;;;;1.80;1.53;;;3.70;81.20;3.50;95096.00;;;;5012375;28;20208;-85
2021/12/08 00:21:42;;;;;;;2.20;1.97;;;3.70;81.10;3.50;95097.00;;;;5012317;28;21001;-85
2021/12/08 00:24:10;;;;;;;3.07;1.60;;;3.70;81.40;3.50;95108.00;;;;4994482;28;21081;-85
2021/12/08 00:26:37;;;;;;;1.70;1.60;;;3.90;81.10;3.50;95109.00;;;;4999956;28;20920;-85
2021/12/08 00:29:05;;;;;;;1.70;1.30;;;3.80;81.20;3.60;95098.00;;;;5005732;28;20448;-85
2021/12/08 00:31:34;;;;;;;1.67;1.57;;;3.80;81.00;3.60;95095.00;;;;5009994;28;20213;-85
2021/12/08 00:34:01;;;;;;;1.70;1.47;;;3.80;81.10;3.60;95081.00;;;;5011741;28;20441;-85
2021/12/08 00:36:39;;;;;;;1.60;1.43;;;3.80;80.80;3.60;95086.00;;;;5006340;28;20481;-85
2021/12/08 00:39:06;;;;;;;1.70;1.57;;;3.80;80.80;3.70;95081.00;;;;5005659;28;20441;-85
2021/12/08 00:41:34;;;;;;;1.67;1.37;;;3.80;80.50;3.70;95090.00;;;;5011872;28;20281;-85
2021/12/08 00:44:01;;;;;;;1.97;1.50;;;3.80;80.50;3.70;95076.00;;;;5011817;28;20686;-84
2021/12/08 00:46:28;;;;;;;2.63;1.60;;;3.90;80.30;3.70;95063.00;;;;5011779;28;20301;-84
2021/12/08 00:48:56;;;;;;;1.70;1.60;;;3.90;80.40;3.80;95048.00;;;;5015547;28;20444;-85
2021/12/08 00:51:24;;;;;;;3.20;1.40;;;3.90;80.20;3.80;95042.00;;;;5013836;28;20445;-85
2021/12/08 00:53:51;;;;;;;1.63;1.33;;;3.90;80.10;3.80;95034.00;;;;5013674;28;20888;-85
2021/12/08 00:56:18;;;;;;;2.40;1.20;;;3.90;80.20;3.80;95020.00;;;;5008083;28;20203;-85
2021/12/08 00:58:45;;;;;;;1.60;1.50;;;3.90;80.00;3.80;95021.00;;;;5011700;28;20244;-85
2021/12/08 01:01:13;;;;;;;1.73;1.40;;;3.90;79.90;3.80;95026.00;;;;5010927;28;20545;-85
2021/12/08 01:03:40;;;;;;;1.40;1.30;;;3.90;79.80;3.80;95018.00;;;;5011120;28;20851;-85
2021/12/08 01:06:09;;;;;;;1.43;1.33;;;3.90;79.90;3.80;95021.00;;;;5007759;28;20201;-86
2021/12/08 01:08:36;;;;;;;1.83;1.73;;;3.90;79.90;3.70;95017.00;;;;5011250;28;20448;-85
2021/12/08 01:11:14;;;;;;;1.60;1.40;;;3.90;80.00;3.70;95008.00;;;;5013359;28;20551;-85
2021/12/08 01:13:44;;;;;;;1.43;1.33;;;3.90;79.60;3.70;95009.00;;;;5012208;28;20444;-85
2021/12/08 01:16:12;;;;;;;1.30;1.20;;;3.80;79.90;3.70;95003.00;;;;5011849;28;20202;-85
2021/12/08 01:18:39;;;;;;;1.50;1.30;;;3.80;79.90;3.70;95013.00;;;;5012274;28;20524;-85
2021/12/08 01:21:11;;;;;;;1.30;1.20;;;3.80;80.00;3.70;95014.00;;;;5011996;28;20190;-85
2021/12/08 01:23:39;;;;;;;1.50;1.40;;;3.80;80.00;3.70;95021.00;;;;5011403;28;20218;-85
2021/12/08 01:26:09;;;;;;;1.83;1.20;;;3.80;80.00;3.60;95017.00;;;;5011322;28;20210;-85
2021/12/08 01:28:37;;;;;;;1.50;1.40;;;3.80;80.40;3.70;95027.00;;;;5010865;28;20201;-87
2021/12/08 01:31:05;;;;;;;1.43;1.33;;;3.80;79.60;3.60;95017.00;;;;5011468;28;20528;-85
2021/12/08 01:33:36;;;;;;;1.30;1.20;;;3.80;79.50;3.70;95015.00;;;;5009157;28;20217;-85
2021/12/08 01:36:06;;;;;;;2.50;1.30;;;3.80;79.50;3.60;95011.00;;;;4991958;28;20979;-85
2021/12/08 01:38:36;;;;;;;1.20;1.10;;;3.80;79.50;3.70;95010.00;;;;5001514;28;20198;-85
2021/12/08 01:41:05;;;;;;;1.30;1.20;;;3.80;79.40;3.70;95008.00;;;;5010733;28;20202;-85
2021/12/08 01:43:42;;;;;;;1.47;1.20;;;3.80;79.40;3.70;95012.00;;;;5011407;28;20485;-85
2021/12/08 01:46:13;;;;;;;1.30;1.20;;;3.80;79.30;3.60;95018.00;;;;5002795;28;20459;-85
2021/12/08 01:48:45;;;;;;;1.10;1.10;;;3.80;79.90;3.60;95008.00;;;;5000294;28;20845;-85
2021/12/08 01:51:17;;;;;;;2.20;1.20;;;3.80;79.20;3.60;95012.00;;;;4991106;28;20233;-86
2021/12/08 01:53:51;;;;;;;1.83;1.13;;;3.80;79.10;3.60;95003.00;;;;5006759;28;20245;-85
2021/12/08 01:56:22;;;;;;;2.27;1.27;;;3.80;79.00;3.60;95007.00;;;;4990933;28;20221;-86
2021/12/08 01:58:50;;;;;;;1.67;1.20;;;3.70;79.10;3.60;95004.00;;;;5011886;28;20234;-85
2021/12/08 02:01:21;;;;;;;1.30;1.17;;;3.70;79.20;3.60;95002.00;;;;5020690;28;20447;-85
2021/12/08 02:03:49;;;;;;;1.20;1.10;;;3.70;79.10;3.70;95002.00;;;;5021199;28;20538;-85
2021/12/08 02:06:19;;;;;;;1.40;1.27;;;3.70;79.30;3.70;95001.00;;;;5058439;23;20581;-90
2021/12/08 02:08:53;;;;;;;1.30;1.20;;;3.70;79.40;3.70;94995.00;;;;5029867;28;20209;-89
2021/12/08 02:11:21;;;;;;;1.37;1.27;;;3.70;79.30;3.70;94994.00;;;;5023644;28;20614;-89
2021/12/08 02:13:51;;;;;;;1.47;1.37;;;3.70;79.40;3.70;94981.00;;;;5032561;28;20465;-89
2021/12/08 02:16:19;;;;;;;1.37;1.27;;;3.70;79.50;3.70;94979.00;;;;5019060;28;20272;-89
2021/12/08 02:18:50;;;;;;;1.80;1.30;;;3.80;79.60;3.70;94980.00;;;;5005423;28;20198;-89
2021/12/08 02:21:27;;;;;;;2.90;1.40;;;3.80;79.50;3.70;94980.00;;;;5011003;28;20194;-89
2021/12/08 02:23:57;;;;;;;1.50;1.30;;;3.70;79.30;3.70;94977.00;;;;5010533;28;20631;-89
2021/12/08 02:26:26;;;;;;;2.67;1.47;;;3.70;79.30;3.70;94976.00;;;;5011034;28;20456;-89
2021/12/08 02:28:55;;;;;;;2.33;1.43;;;3.70;79.10;3.60;94968.00;;;;5010871;28;20441;-89
2021/12/08 02:31:32;;;;;;;1.57;1.47;;;3.70;79.00;3.60;94965.00;;;;5011948;28;20881;-89
2021/12/08 02:47:53;;;;;;;1.87;1.20;;;3.60;79.10;3.50;94962.00;;;;5003394;28;20440;-89
2021/12/08 02:50:23;;;;;;;1.50;1.40;;;3.50;79.10;3.50;94954.00;;;;4992499;28;20438;-89
2021/12/08 02:52:53;;;;;;;1.47;1.30;;;3.60;79.10;3.50;94951.00;;;;5009678;28;20441;-89
2021/12/08 02:55:20;;;;;;;1.40;1.27;;;3.50;79.10;3.50;94957.00;;;;5011822;28;20860;-89
2021/12/08 02:57:47;;;;;;;1.53;1.23;;;3.50;79.30;3.50;94946.00;;;;5011055;28;20445;-89
2021/12/08 03:00:23;;;;;;;1.43;1.30;;;3.50;79.50;3.50;94935.00;;;;5011327;28;20453;-89
2021/12/08 03:02:51;;;;;;;1.67;1.57;;;3.60;79.70;3.50;94938.00;;;;5013347;28;20453;-89
2021/12/08 03:05:19;;;;;;;1.43;1.33;;;3.70;80.00;3.60;94938.00;;;;5014689;28;20527;-89
2021/12/08 03:07:47;;;;;;;1.93;1.50;;;3.70;80.10;3.60;94940.00;;;;5014925;28;20567;-89
2021/12/08 03:10:21;;;;;;;1.83;1.30;;;3.70;79.90;3.60;94934.00;;;;5021457;28;20468;-90
2021/12/08 03:12:48;;;;;;;1.50;1.30;;;3.70;80.00;3.70;94946.00;;;;5030648;28;21048;-89
2021/12/08 03:15:16;;;;;;;1.67;1.57;;;3.70;80.00;3.70;94956.00;;;;5021559;28;20483;-90
2021/12/08 03:17:44;;;;;;;1.83;1.60;;;3.70;80.80;3.80;94947.00;;;;5014518;28;20544;-89
2021/12/08 03:20:15;;;;;;;2.17;1.40;;;3.80;80.10;3.80;94948.00;;;;5014381;28;20544;-88
2021/12/08 03:22:46;;;;;;;1.40;1.30;;;3.80;80.20;3.90;94952.00;;;;5015301;28;21012;-89
2021/12/08 03:25:19;;;;;;;1.60;1.50;;;3.90;80.30;3.90;94956.00;;;;5014463;28;20236;-90
2021/12/08 03:27:51;;;;;;;1.70;1.60;;;3.90;80.40;3.90;94966.00;;;;5030198;28;20190;-88
2021/12/08 03:30:24;;;;;;;2.40;1.43;;;3.90;80.40;4.00;94960.00;;;;5029653;28;20817;-89
2021/12/08 03:32:56;;;;;;;2.73;1.73;;;4.00;80.50;4.10;94959.00;;;;5017821;28;20190;-89
2021/12/08 03:35:25;;;;;;;1.83;1.53;;;4.00;80.70;4.10;94964.00;;;;5013686;28;20229;-88
2021/12/08 03:37:52;;;;;;;1.50;1.40;;;4.10;80.60;4.20;94964.00;;;;4995248;28;20205;-89
2021/12/08 03:40:24;;;;;;;1.70;1.60;;;4.10;81.40;4.20;94960.00;;;;5013437;28;20447;-89
2021/12/08 03:42:56;;;;;;;2.73;1.60;;;4.20;80.40;4.20;94964.00;;;;4994819;28;20269;-90
2021/12/08 03:45:30;;;;;;;2.07;1.70;;;4.20;81.20;4.30;94964.00;;;;5011848;28;20700;-90
2021/12/08 03:48:03;;;;;;;1.97;1.53;;;4.30;80.50;4.40;94969.00;;;;5014377;28;20644;-90
2021/12/08 03:50:34;;;;;;;1.77;1.47;;;4.40;80.50;4.40;94960.00;;;;5021387;28;20204;-89
2021/12/08 03:53:01;;;;;;;2.03;1.50;;;4.40;80.50;4.50;94975.00;;;;5024169;28;20690;-89
2021/12/08 03:55:29;;;;;;;1.63;1.50;;;4.50;80.40;4.50;94965.00;;;;5021793;28;20252;-90
2021/12/08 03:57:57;;;;;;;4.47;1.60;;;4.50;80.10;4.50;94962.00;;;;5016314;28;20193;-89
2021/12/08 04:00:29;;;;;;;1.60;1.50;;;4.50;80.10;4.60;94966.00;;;;5023489;28;20200;-89
2021/12/08 04:02:57;;;;;;;2.50;1.50;;;4.60;80.00;4.70;94968.00;;;;5013177;28;20201;-90
2021/12/08 04:05:39;;;;;;;2.47;1.50;;;4.60;80.00;4.70;94970.00;;;;5018116;28;20229;-89
2021/12/08 04:08:15;;;;;;;1.77;1.67;;;4.70;80.10;4.70;94967.00;;;;5002538;28;20280;-89
2021/12/08 04:10:45;;;;;;;1.63;1.40;;;4.70;80.00;4.80;94973.00;;;;5021683;28;20193;-90
2021/12/08 04:13:13;;;;;;;1.70;1.50;;;4.80;79.90;4.80;94965.00;;;;5011946;28;20566;-89
2021/12/08 04:15:40;;;;;;;2.90;1.80;;;4.70;79.70;4.80;94960.00;;;;5013023;28;20304;-89
2021/12/08 04:18:08;;;;;;;1.40;1.30;;;4.80;79.70;4.80;94953.00;;;;5012564;28;20503;-89
2021/12/08 04:20:41;;;;;;;1.80;1.70;;;4.80;79.50;4.80;94946.00;;;;5013840;28;20204;-89
2021/12/08 04:23:12;;;;;;;1.60;1.50;;;4.80;79.50;4.90;94948.00;;;;5013917;28;20293;-88
2021/12/08 04:25:44;;;;;;;2.53;1.70;;;4.70;79.50;4.90;94956.00;;;;5012306;28;20601;-89
2021/12/08 04:28:15;;;;;;;1.43;1.33;;;4.90;79.60;4.90;94947.00;;;;5007546;28;20652;-89
2021/12/08 04:30:48;;;;;;;2.10;1.50;;;4.90;79.50;4.90;94946.00;;;;5013299;28;20206;-89
2021/12/08 04:33:17;;;;;;;2.53;1.47;;;4.90;79.50;4.90;94939.00;;;;5008914;28;20273;-89
2021/12/08 04:35:48;;;;;;;1.90;1.67;;;4.90;79.40;4.90;94934.00;;;;5011236;28;20321;-88
2021/12/08 04:38:23;;;;;;;1.43;1.33;;;4.90;79.40;4.90;94935.00;;;;5008647;28;20570;-89
2021/12/08 04:41:02;;;;;;;2.90;1.47;;;4.90;79.40;5.00;94967.00;;;;5013391;28;20225;-89
2021/12/08 04:43:34;;;;;;;2.97;1.57;;;4.90;79.40;5.00;94986.00;;;;5012903;28;20284;-89
2021/12/08 04:46:14;;;;;;;1.53;1.40;;;4.90;79.50;5.00;94986.00;;;;5016219;28;20227;-89
2021/12/08 04:49:04;;;;;;;1.90;1.70;;;4.90;79.40;5.00;94982.00;;;;5003658;28;20194;-88
2021/12/08 04:51:44;;;;;;;2.13;1.47;;;5.00;79.40;5.00;94985.00;;;;5012963;28;20201;-89
2021/12/08 05:00:30;;;;;;;1.57;1.47;;;5.00;79.10;5.10;94987.00;;;;5010406;28;20243;-89
2021/12/08 05:03:23;;;;;;;2.27;1.63;;;5.00;79.10;5.10;94986.00;;;;5003628;28;20240;-89
2021/12/08 05:06:16;;;;;;;1.60;1.50;;;5.00;79.10;5.10;94995.00;;;;5014776;28;20320;-88
2021/12/08 05:08:44;;;;;;;1.70;1.33;;;5.00;79.20;5.10;94985.00;;;;5003968;28;20249;-89
2021/12/08 05:11:18;;;;;;;2.37;1.43;;;5.00;79.20;5.10;94990.00;;;;5023626;28;20215;-88
2021/12/08 05:13:51;;;;;;;1.83;1.70;;;5.10;79.00;5.10;94990.00;;;;5012075;28;20205;-90
2021/12/08 05:16:20;;;;;;;1.70;1.60;;;5.10;79.10;5.10;94996.00;;;;5018337;28;20582;-90
2021/12/08 05:18:51;;;;;;;2.53;1.70;;;5.10;79.10;5.10;95006.00;;;;5014452;28;20202;-90
2021/12/08 05:21:28;;;;;;;1.90;1.70;;;5.10;79.00;5.20;95008.00;;;;5019114;28;20392;-89
2021/12/08 05:24:03;;;;;;;2.00;1.50;;;5.10;78.90;5.20;94997.00;;;;5015961;28;20281;-88
2021/12/08 05:26:36;;;;;;;1.63;1.53;;;5.10;79.00;5.20;95007.00;;;;5012647;28;20205;-90
2021/12/08 05:29:15;;;;;;;1.80;1.50;;;5.10;79.10;5.20;95020.00;;;;5000651;28;20281;-89
2021/12/08 05:31:43;;;;;;;2.10;1.90;;;5.10;78.90;5.20;95017.00;;;;5012411;28;20206;-89
2021/12/08 05:34:11;;;;;;;2.33;2.07;;;5.10;79.00;5.20;95017.00;;;;5012218;28;20216;-89
2021/12/08 05:36:41;;;;;;;2.13;1.70;;;5.10;79.00;5.20;95018.00;;;;5012846;28;20198;-89
2021/12/08 05:39:20;;;;;;;1.73;1.63;;;5.10;78.90;5.20;95020.00;;;;5005610;28;20676;-88
2021/12/08 05:41:52;;;;;;;1.83;1.60;;;5.20;78.90;5.20;95022.00;;;;5005022;28;20254;-90
2021/12/08 05:44:21;;;;;;;2.40;1.63;;;5.20;78.90;5.20;95030.00;;;;5010692;28;20530;-90
2021/12/08 05:46:51;;;;;;;2.47;1.90;;;5.20;78.90;5.20;95019.00;;;;5011588;28;20199;-89
2021/12/08 05:49:20;;;;;;;2.10;1.90;;;5.20;79.00;5.20;95021.00;;;;5009769;28;20202;-89
2021/12/08 05:51:52;;;;;;;1.80;1.70;;;5.20;79.60;5.20;95020.00;;;;5012004;28;20281;-89
2021/12/08 05:54:24;;;;;;;2.13;1.70;;;5.20;78.80;5.20;95030.00;;;;5012031;28;20309;-90
2021/12/08 05:56:55;;;;;;;2.00;1.80;;;5.20;78.60;5.20;95029.00;;;;5002039;28;20202;-89
2021/12/08 05:59:25;;;;;;;1.63;1.53;;;5.10;78.80;5.20;95025.00;;;;4993520;28;20199;-88
2021/12/08 06:02:03;;;;;;;3.33;1.77;;;5.20;78.80;5.20;95021.00;;;;4993233;28;20206;-89
2021/12/08 06:04:32;;;;;;;2.17;1.83;;;5.20;78.80;5.20;95020.00;;;;4997641;28;20224;-89
2021/12/08 06:07:01;;;;;;;1.93;1.73;;;5.20;78.80;5.20;95018.00;;;;5013030;28;20204;-89
2021/12/08 06:09:31;;;;;;;1.80;1.70;;;5.20;79.00;5.20;95016.00;;;;5012578;28;20198;-88
2021/12/08 06:12:01;;;;;;;2.33;1.60;;;5.10;78.80;5.20;95023.00;;;;5012742;28;20189;-88
2021/12/08 06:14:32;;;;;;;1.63;1.53;;;5.20;79.60;5.20;95012.00;;;;5012585;28;20228;-89
2021/12/08 06:17:06;;;;;;;2.00;1.77;;;5.20;78.70;5.30;95006.00;;;;5012836;28;20580;-88
2021/12/08 06:19:35;;;;;;;1.87;1.70;;;5.10;78.90;5.30;95006.00;;;;5012771;28;20560;-89
2021/12/08 06:22:03;;;;;;;1.57;1.47;;;5.20;78.90;5.30;94999.00;;;;5011264;28;20225;-89
2021/12/08 06:24:31;;;;;;;2.53;1.60;;;5.20;78.90;5.30;95009.00;;;;5001263;28;20217;-89
2021/12/08 06:26:58;;;;;;;2.87;1.53;;;5.20;78.90;5.20;94998.00;;;;5012900;28;20206;-88
2021/12/08 06:29:26;;;;;;;1.57;1.43;;;5.20;79.10;5.20;95011.00;;;;5012558;28;20204;-89
2021/12/08 06:31:59;;;;;;;2.13;1.70;;;5.20;79.10;5.20;95006.00;;;;5012542;28;20656;-89
2021/12/08 06:34:28;;;;;;;2.20;2.00;;;5.20;78.80;5.30;95007.00;;;;5026879;28;20304;-89
2021/12/08 06:37:01;;;;;;;1.70;1.60;;;5.20;78.80;5.20;94990.00;;;;5030005;28;20199;-87
2021/12/08 06:39:37;;;;;;;2.23;1.80;;;5.20;79.10;5.20;94997.00;;;;4996350;28;20577;-87
2021/12/08 06:42:10;;;;;;;1.70;1.60;;;5.20;79.10;5.20;94993.00;;;;5013478;28;20605;-89
2021/12/08 06:44:48;;;;;;;1.70;1.60;;;5.20;79.00;5.30;94988.00;;;;5015833;28;20726;-89
2021/12/08 06:47:22;;;;;;;2.33;1.87;;;5.20;78.80;5.30;94982.00;;;;5015833;28;20220;-89
2021/12/08 06:49:53;;;;;;;1.70;1.60;;;5.20;79.00;5.30;94990.00;;;;5019078;28;20778;-88
2021/12/08 06:52:29;;;;;;;2.00;1.73;;;5.20;78.70;5.30;95010.00;;;;5015796;28;20202;-89
2021/12/08 06:55:01;;;;;;;1.67;1.57;;;5.20;79.00;5.20;95011.00;;;;5016507;28;20221;-87
2021/12/08 06:57:35;;;;;;;1.60;1.50;;;5.20;79.20;5.20;95009.00;;;;5015826;28;20193;-88
2021/12/08 07:00:17;;;;;;;2.67;1.60;;;5.20;78.40;5.20;95012.00;;;;4996772;28;20230;-88
2021/12/08 07:02:59;;;;;;;1.87;1.77;;;5.10;78.20;5.20;95003.00;;;;4997038;28;20207;-86
2021/12/08 07:06:02;;;;;;;1.80;1.70;;;5.20;78.20;5.20;95003.00;;;;4996284;28;20227;-88
2021/12/08 07:08:26;;;;;;;1.97;1.73;;;5.10;78.10;5.20;94996.00;;;;5016426;28;20613;-88
2021/12/08 07:10:57;;;;;;;2.07;1.83;;;5.20;78.40;5.30;94992.00;;;;5018091;28;20535;-88
2021/12/08 07:13:29;;;;;;;2.20;1.87;;;5.20;78.60;5.30;95006.00;;;;5015625;28;20241;-88
2021/12/08 07:16:02;;;;;;;1.90;1.50;;;5.30;78.90;5.30;95016.00;;;;5015237;28;20687;-88
2021/12/08 07:18:39;;;;;;;1.93;1.80;;;5.20;78.70;5.40;95000.00;;;;5028151;28;20743;-88
2021/12/08 07:21:12;;;;;;;3.13;1.77;;;5.30;78.60;5.40;95003.00;;;;5024281;28;20572;-88
2021/12/08 07:23:44;;;;;;;2.17;1.97;;;5.30;78.80;5.50;94993.00;;;;5006888;28;20194;-88
2021/12/08 07:26:16;;;;;;;1.90;1.80;;;5.30;78.70;5.50;94986.00;;;;5015272;28;20218;-88
2021/12/08 07:28:46;;;;;;;2.20;1.83;;;5.40;78.60;5.50;94994.00;;;;5016089;28;20637;-89
2021/12/08 07:31:18;;;;;;;1.97;1.87;;;5.40;78.50;5.60;94981.00;;;;5016187;28;20186;-88
2021/12/08 07:33:48;;;;;;;2.00;1.60;;;5.40;78.40;5.60;94974.00;;;;5016347;28;20278;-89
2021/12/08 07:36:20;;;;;;;2.10;1.90;;;5.50;78.30;5.60;94965.00;;;;5015948;28;20320;-90
2021/12/08 07:38:54;;;;;;;3.30;1.90;;;5.50;78.20;5.60;94967.00;;;;5016174;28;20251;-87
2021/12/08 07:41:29;;;;;;;2.47;1.77;;;5.50;78.10;5.60;94972.00;;;;5017094;28;20573;-86
2021/12/08 07:44:01;;;;;;;1.70;1.60;;;5.60;78.20;5.70;94983.00;;;;5021641;28;20213;-86
2021/12/08 07:46:36;;;;;;;2.00;1.80;;;5.60;78.30;5.70;94984.00;;;;5028610;28;20308;-87
2021/12/08 07:49:13;;;;;;;1.70;1.60;;;5.60;78.50;5.70;94979.00;;;;4998665;28;20196;-86
2021/12/08 07:51:46;;;;;;;2.10;1.70;;;5.60;78.10;5.70;94979.00;;;;5026933;28;20250;-85
2021/12/08 07:54:14;;;;;;;2.10;2.00;;;5.60;78.20;5.70;94985.00;;;;5019143;28;20687;-87
2021/12/08 07:56:46;;;;;;;2.40;1.90;;;5.60;78.40;5.70;94990.00;;;;5021798;28;20202;-87
2021/12/08 07:59:18;;;;;;;2.00;1.90;;;5.60;78.70;5.70;95000.00;;;;5020142;28;20667;-88
2021/12/08 08:01:54;;;;;;;2.93;2.23;;;5.50;78.20;5.70;94997.00;;;;5025264;28;20265;-87
2021/12/08 08:07:04;;;;;;;3.53;2.33;;;5.50;78.30;5.60;95004.00;;;;5036568;22;20623;-86
2021/12/08 08:09:45;;;;;;;2.20;2.10;;;5.50;78.60;5.50;94996.00;;;;5013963;28;20237;-86
2021/12/08 08:12:23;;;;;;;2.13;2.00;;;5.50;78.00;5.50;94993.00;;;;5013799;28;20697;-85
2021/12/08 08:14:58;;;;;;;1.97;1.77;;;5.40;78.30;5.50;94989.00;;;;5014062;28;20281;-85
2021/12/08 08:17:35;;;;;;;2.20;2.00;;;5.40;78.90;5.50;94980.00;;;;5011904;28;20244;-85
2021/12/08 08:20:06;;;;;;;1.60;1.50;;;5.40;79.30;5.50;94974.00;;;;5012138;28;20194;-86
2021/12/08 08:22:39;;;;;;;2.13;1.93;;;5.40;79.40;5.50;94964.00;;;;5013395;28;20274;-86
2021/12/08 08:25:12;;;;;;;2.63;2.10;;;5.40;79.60;5.60;94980.00;;;;5009701;28;20202;-85
2021/12/08 08:27:44;;;;;;;2.73;1.93;;;5.40;79.70;5.60;94984.00;;;;5003937;28;20228;-84
2021/12/08 08:30:18;;;;;;;2.30;2.10;;;5.40;79.80;5.60;94988.00;;;;5008840;28;20205;-86
2021/12/08 08:32:52;;;;;;;4.03;2.30;;;5.40;79.70;5.50;94994.00;;;;5003287;28;20394;-85
2021/12/08 08:35:33;;;;;;;2.30;2.00;;;5.40;79.40;5.50;94994.00;;;;5003001;28;20200;-86
2021/12/08 08:38:18;;;;;;;2.20;2.03;;;5.40;79.50;5.50;94990.00;;;;5009535;28;20228;-85
2021/12/08 08:41:02;;;;;;;2.87;2.50;;;5.40;79.20;5.50;94971.00;;;;5013893;28;20361;-84
2021/12/08 08:43:33;;;;;;;2.47;2.27;;;5.30;79.10;5.40;94964.00;;;;5013566;28;20198;-85
2021/12/08 08:46:09;;;;;;;2.50;2.30;;;5.30;79.10;5.50;94953.00;;;;5012210;28;20580;-85
2021/12/08 08:48:41;;;;;;;4.13;2.50;;;5.30;79.80;5.50;94948.00;;;;5016708;28;20197;-84
2021/12/08 08:51:15;;;;;;;3.27;2.20;;;5.30;80.30;5.60;94950.00;;;;5016251;28;20186;-84
2021/12/08 08:53:51;;;;;;;2.03;1.70;;;5.40;80.40;5.60;94953.00;;;;5015760;28;20219;-85
2021/12/08 08:56:27;;;;;;;2.97;2.23;;;5.40;80.50;5.70;94960.00;;;;5016164;28;20228;-85
2021/12/08 08:59:00;;;;;;;2.67;2.00;;;5.50;80.80;5.80;94956.00;;;;5015140;28;20228;-86
2021/12/08 09:01:31;;;;;;;1.60;1.50;;;5.50;81.00;5.90;94953.00;;;;5017466;28;20190;-86
2021/12/08 09:04:09;;;;;;;2.40;2.20;;;5.60;80.90;6.00;94938.00;;;;5019299;28;20229;-84
2021/12/08 09:06:43;;;;;;;1.93;1.77;;;5.60;80.70;6.00;94957.00;;;;5014881;28;20646;-86
2021/12/08 09:09:48;;;;;;;2.17;1.97;;;5.70;80.60;6.10;94960.00;;;;5013646;28;20182;-87
2021/12/08 09:12:21;;;;;;;2.20;2.00;;;5.70;80.80;6.10;94948.00;;;;4998482;28;20209;-83
2021/12/08 09:15:00;;;;;;;1.70;1.60;;;5.80;80.60;6.10;94958.00;;;;5017670;28;20268;-86
2021/12/08 09:17:40;;;;;;;1.60;1.50;;;5.80;80.50;6.10;94952.00;;;;5034337;28;20248;-85
2021/12/08 09:20:20;;;;;;;2.20;1.60;;;5.80;80.50;6.20;94946.00;;;;5017273;28;20205;-85
2021/12/08 09:23:00;;;;;;;2.00;1.90;;;5.90;80.70;6.20;94942.00;;;;5008208;28;20646;-86
2021/12/08 09:25:35;;;;;;;2.20;2.00;;;5.90;80.30;6.20;94927.00;;;;5010345;28;20209;-85
2021/12/08 09:28:21;;;;;;;2.70;1.83;;;5.90;80.30;6.20;94935.00;;;;5012478;28;20249;-85
2021/12/08 09:31:04;;;;;;;3.50;2.20;;;6.00;80.30;6.30;94933.00;;;;5013907;28;20221;-85
2021/12/08 09:33:41;;;;;;;2.23;1.47;;;6.00;80.20;6.30;94937.00;;;;5012533;28;20202;-85
2021/12/08 09:36:19;;;;;;;1.80;1.70;;;6.00;80.20;6.30;94934.00;;;;5011428;28;20267;-85
2021/12/08 09:38:54;;;;;;;2.93;2.10;;;6.00;80.20;6.30;94923.00;;;;5013298;28;20599;-85
2021/12/08 09:41:30;;;;;;;2.07;1.93;;;6.00;80.50;6.40;94910.00;;;;5012893;28;20194;-85
2021/12/08 09:44:07;;;;;;;2.40;2.20;;;6.00;80.50;6.40;94917.00;;;;5013769;28;20281;-85
2021/12/08 09:46:39;;;;;;;2.00;1.90;;;6.10;80.70;6.40;94906.00;;;;5014566;28;20737;-84
2021/12/08 09:49:09;;;;;;;4.90;2.23;;;6.10;80.70;6.50;94894.00;;;;5014647;28;20573;-85
2021/12/08 09:51:38;;;;;;;2.73;2.00;;;6.10;81.00;6.50;94914.00;;;;5015993;28;20221;-85
2021/12/08 09:54:06;;;;;;;1.97;1.87;;;6.20;81.10;6.50;94902.00;;;;5013953;28;20204;-84
2021/12/08 09:56:39;;;;;;;2.77;2.30;;;6.20;81.10;6.60;94905.00;;;;5015108;28;20249;-84
2021/12/08 09:59:10;;;;;;;2.83;2.40;;;6.20;80.90;6.60;94899.00;;;;5016555;28;20277;-84
2021/12/08 10:01:41;;;;;;;2.60;2.10;;;6.30;81.00;6.60;94891.00;;;;5014670;28;20206;-85
2021/12/08 10:04:10;;;;;;;2.50;2.20;;;6.30;81.00;6.60;94894.00;;;;5016314;28;20194;-84
2021/12/08 10:06:40;;;;;;;2.67;2.47;;;6.30;80.90;6.70;94891.00;;;;5016050;28;20249;-84
2021/12/08 10:09:08;;;;;;;2.73;2.30;;;6.30;80.70;6.70;94889.00;;;;5018555;28;20258;-84
2021/12/08 10:11:37;;;;;;;2.70;2.33;;;6.30;80.60;6.70;94889.00;;;;5020112;28;20256;-84
2021/12/08 10:14:05;;;;;;;2.47;2.30;;;6.30;80.60;6.70;94894.00;;;;5019125;28;20681;-84
2021/12/08 10:16:34;;;;;;;2.87;2.57;;;6.30;80.50;6.70;94886.00;;;;5022005;28;20539;-85
2021/12/08 10:19:02;;;;;;;2.40;2.20;;;6.40;80.50;6.70;94890.00;;;;5021200;28;20630;-84
2021/12/08 10:21:35;;;;;;;3.23;2.20;;;6.40;80.80;6.70;94885.00;;;;5021216;28;20256;-85
2021/12/08 10:24:16;;;;;;;2.20;2.10;;;6.40;80.40;6.80;94882.00;;;;5009068;28;20191;-85
2021/12/08 10:26:46;;;;;;;8.27;2.70;;;6.50;80.50;6.80;94882.00;;;;5020507;28;20236;-84
2021/12/08 10:29:13;;;;;;;2.93;2.40;;;6.50;80.80;6.80;94871.00;;;;5010717;28;20211;-84
2021/12/08 10:31:45;;;;;;;2.70;2.47;;;6.50;80.50;6.80;94856.00;;;;5008167;28;20294;-85
2021/12/08 10:34:24;;;;;;;2.87;2.63;;;6.50;80.80;6.90;94840.00;;;;5019179;28;20217;-85
2021/12/08 10:36:56;;;;;;;2.73;2.33;;;6.50;80.60;6.90;94837.00;;;;5021212;28;20300;-84
2021/12/08 10:39:31;;;;;;;2.60;2.40;;;6.60;80.80;7.00;94835.00;;;;5023726;28;20206;-84
2021/12/08 10:42:18;;;;;;;2.67;2.40;;;6.60;80.60;7.00;94840.00;;;;5024191;28;20259;-84
2021/12/08 10:45:08;;;;;;;2.73;2.40;;;6.60;80.50;7.00;94833.00;;;;5022677;28;20205;-83
2021/12/08 10:47:39;;;;;;;2.50;2.30;;;6.60;80.50;7.00;94850.00;;;;5022229;28;20575;-82
2021/12/08 10:55:55;;;;;;;5.33;2.90;;;6.60;80.10;7.00;94834.00;;;;5017543;28;20223;-80
2021/12/08 10:58:27;;;;;;;2.93;2.30;;;6.60;80.20;7.00;94827.00;;;;5020572;28;20301;-83
2021/12/08 11:00:58;;;;;;;3.00;2.30;;;6.70;80.20;7.10;94820.00;;;;5025118;28;20587;-84
2021/12/08 11:03:31;;;;;;;2.40;2.20;;;6.70;79.70;7.00;94815.00;;;;5020668;28;20194;-82
2021/12/08 11:06:02;;;;;;;3.90;2.47;;;6.70;79.70;7.10;94815.00;;;;5018014;28;20273;-82
2021/12/08 11:08:33;;;;;;;2.60;2.33;;;6.70;79.80;7.10;94814.00;;;;5019775;28;20205;-82
2021/12/08 11:11:07;;;;;;;2.60;2.40;;;6.80;80.00;7.10;94825.00;;;;5019444;28;20198;-82
2021/12/08 11:13:41;;;;;;;3.43;2.27;;;6.80;80.10;7.20;94825.00;;;;5018914;28;20219;-82
2021/12/08 11:16:16;;;;;;;3.13;2.50;;;6.80;79.80;7.20;94826.00;;;;5017778;28;20244;-84
2021/12/08 11:18:46;;;;;;;2.60;2.40;;;6.80;79.70;7.20;94831.00;;;;5019861;28;20193;-83
2021/12/08 11:21:21;;;;;;;2.30;2.10;;;6.80;79.30;7.20;94836.00;;;;5020353;28;20794;-83
2021/12/08 11:24:30;;;;;;;2.67;2.30;;;6.80;79.10;7.20;94833.00;;;;5020378;28;20550;-83
2021/12/08 11:27:05;;;;;;;2.80;2.60;;;6.90;79.30;7.20;94820.00;;;;5018881;28;20225;-84
2021/12/08 11:29:44;;;;;;;2.37;2.17;;;6.90;79.20;7.20;94809.00;;;;5011578;28;20674;-84
2021/12/08 11:32:12;;;;;;;2.13;1.97;;;6.90;78.70;7.20;94815.00;;;;5012076;28;20209;-83
2021/12/08 11:34:59;;;;;;;2.53;1.80;;;6.90;78.90;7.20;94820.00;;;;5016931;28;20205;-85
2021/12/08 11:37:34;;;;;;;2.30;2.10;;;6.90;78.90;7.20;94810.00;;;;5016305;28;20390;-83
2021/12/08 11:40:19;;;;;;;2.33;2.13;;;7.00;79.30;7.30;94812.00;;;;5023807;28;20627;-83
2021/12/08 11:42:55;;;;;;;2.93;2.23;;;7.00;78.60;7.30;94803.00;;;;5021931;28;20281;-83
2021/12/08 11:45:29;;;;;;;4.93;2.50;;;7.10;79.10;7.40;94798.00;;;;5021809;28;20221;-83
2021/12/08 11:48:27;;;;;;;2.57;2.30;;;7.10;79.10;7.30;94783.00;;;;5019185;28;20209;-84
2021/12/08 11:51:12;;;;;;;2.23;2.07;;;7.10;78.30;7.30;94774.00;;;;5021280;28;20210;-83
2021/12/08 11:53:47;;;;;;;2.00;1.87;;;7.10;78.10;7.30;94772.00;;;;5019444;28;20225;-83
2021/12/08 11:56:35;;;;;;;2.60;2.40;;;7.10;78.50;7.30;94772.00;;;;5019501;28;20205;-84
2021/12/08 11:59:07;;;;;;;2.50;2.30;;;7.10;78.00;7.30;94770.00;;;;5022483;28;20225;-83
2021/12/08 12:01:37;;;;;;;3.73;2.20;;;7.10;78.80;7.30;94766.00;;;;5001296;28;20202;-83
2021/12/08 12:04:07;;;;;;;3.20;2.20;;;7.00;79.00;7.30;94764.00;;;;5000089;28;20237;-83
2021/12/08 12:06:36;;;;;;;2.70;2.47;;;7.10;79.10;7.40;94768.00;;;;5003174;28;20641;-83